العودة   :: Flying Way :: > ._][_ سـاحة المطـار والطائرات Airport and Aircraft's yard _][_. > السلامة الجوية Flight Safety
تحديث الصفحة [أخبـار] طائرة إير بلين من طراز A320 تتجاوز المدرج اثناء الهبوط بسبب مدرج مبتل
الملاحظات

السلامة الجوية Flight Safety   متابعة أخبار حوادث الطيران وتحليل المعلومات التي أدت إليها. راجع فهرس قسم  السلامة الجوية

أدوات الموضوع إبحث في الموضوع
الصورة الرمزية محمد احمد عسيري
Flying Way
قديم 30-09-2017, 04:43 PM   رقم المشاركة : [ 1 ]   
مشاهدة ملفه الشخصي
 
 
 
تم شكره 4,140 مرة في 2,286 مشاركة
محمد احمد عسيري يستحق الثقة والتقديرمحمد احمد عسيري يستحق الثقة والتقديرمحمد احمد عسيري يستحق الثقة والتقديرمحمد احمد عسيري يستحق الثقة والتقديرمحمد احمد عسيري يستحق الثقة والتقديرمحمد احمد عسيري يستحق الثقة والتقديرمحمد احمد عسيري يستحق الثقة والتقديرمحمد احمد عسيري يستحق الثقة والتقديرمحمد احمد عسيري يستحق الثقة والتقديرمحمد احمد عسيري يستحق الثقة والتقديرمحمد احمد عسيري يستحق الثقة والتقدير
معدل تقييم المستوى: 14337
Exclamation طائرة إير بلين من طراز A320 تتجاوز المدرج اثناء الهبوط بسبب مدرج مبتل


تجاوزت طائرة ركاب ألمانية كانت تقل 88 شخصا، المدرج المخصص لها أثناء هبوطها في جزيرة سيلت ببحر الشمال، لكن دون تسجيل إصابات.

وقال مركز الطوارئ في بحر الشمال إن الطائرة التابعة لشركة "إير برلين" التي أقلعت من دوسلدورف ووصلت مطار الجزيرة، السبت، تجاوزت مدرجها وتوقفت على العشب على بعد نحو 50 مترا.

وساعد عمال الإنقاذ 82 راكبا وطاقم الطائرة المكون من 6 أفراد على مغادرتها بأمان.

وقال مسؤولون ألمان في بيان إن سبب الحادث قيد التحقيق، لكنهم أشاروا إلى أن المدرج كان مبتلا وأن الرؤية كانت سيئة.

وتم تعليق الرحلات من وإلى سيلت، المقصد السياحي الشهير قرب الحدود الألمانية الدنماركية، السبت.

https://www.skynewsarabia.com/web/ar...ألمانية

قديم 30-09-2017, 04:49 PM   رقم المشاركة : [ 2 ]   
محمد احمد عسيري
Flying Way
الصورة الرمزية محمد احمد عسيري
Exclamation رد: طائرة إير بلين من طراز A320 تتجاوز المدرج اثناء الهبوط بسبب مدرج مبتل


Incident: Berlin A320 at Sylt on Sep 30th 2017, overran runway on landing


An Air Berlin Airbus A320-200, registration D-ABHO performing flight AB-6880 from Dusseldorf to Sylt (Germany) with 82 passengers and 5 crew, landed on Sylt Westerland's runway 32 at 08:19L (06:19Z) but overran the end of the runway and came to a stop about 100 meters/330 feet past the runway end with all gear on soft ground. There were no injuries, the aircraft sustained minor if any damage.

Passenger Claudia Kolvenbach commented: "Have landed..... even though the runway was too short for us today. Everybody's fine"

Germany's BFU opened an investigation into the occurrence.

Sylt Westerland Airport features two runways 14/32 (length 2120 meters/6950 feet) and 06/24 (length 1696 meters/5560 feet). Only runway 32 features an ILS Cat I approach (OCH 199 feet AGL - with overcast cloud at 200 feet the only possible approach). RNP (OCH 380 feet) and NDB approaches (OCH 480 feet) are available for both runways 14 and 32.

Related NOTAMs:
B1540/17 - WESTERLAND DME WES 111.50/CH52 OUT OF SERVICE. 30 SEP 08:50 2017 UNTIL 30 SEP 23:59 2017. CREATED: 30 SEP 08:51 2017

C2814/17 - ILS RWY 32 OUT OF SERVICE. 30 SEP 08:48 2017 UNTIL 30 SEP 23:59 2017. CREATED: 30 SEP 08:48 2017

C2812/17 - RWY 14/32 CLOSED FOR LANDING. TAKE OFF RWY 14 POSSIBLE. 30 SEP 09:00 2017 UNTIL 30 SEP 23:59 2017. CREATED: 30 SEP 08:42 2017


Metars:
EDXW 300750Z 14011KT 2000 BR OVC003 15/14 Q1015=
EDXW 300720Z 14012KT 1800 BR OVC002 15/14 Q1015=
COR EDXW 300620Z 14011KT 1200 R14/P2000N RA BR OVC002 15/14 Q1015=
EDXW 300550Z 14011KT 1800 BR OVC003 15/14 Q1015=
EDXW 300520Z 14011KT 2500 BR OVC004 15/14 Q1015=


The aircraft on soft ground



http://avherald.com/h?article=4af119d9&opt=0
  إقتباس
الأعضاء الذين قالوا شكراً لـ محمد احمد عسيري على المشاركة المفيدة:
alzaiem (01-10-2017)
إضافة رد

«     مقتل طيارين أوكرانيين في تحطم طائرة عسكرية أوكرانية   |    تحطم طائرة عسكرية من طراز انتونوف بالكونغو ومقتل جميع ركابها    »


الذين يشاهدون محتوى الموضوع الآن : 1 ( الأعضاء 0 والزوار 1)
 
أدوات الموضوع إبحث في الموضوع
إبحث في الموضوع:

البحث المتقدم

الانتقال السريع

المواضيع المتشابهه
الموضوع كاتب الموضوع المنتدى مشاركات آخر مشاركة
[أخبـار] طائرة B737 التابعة لشركة بيجاسوس التركية تتجاوز المدرج اثناء هبوطها بمطار طرابزون محمد احمد عسيري السلامة الجوية Flight Safety 2 19-01-2018 09:50 AM
طائرة A320 تابعة للخطوط الفرنسية تتجاوز المدرج أثناء الهبوط محمد احمد عسيري السلامة الجوية Flight Safety 0 24-09-2017 11:01 AM
طائرة A320 للخطوط الهندية تتجاوز المدرج اثناء الهبوط بمطار جامو محمد احمد عسيري السلامة الجوية Flight Safety 1 15-09-2017 08:49 AM
تكسر في بداية الجناح الأيسر لطائرة A320 تابعة للخطوط الباكستانية بسبب اصطدام الطيور اثناء الهبوط بمطار بيشاور محمد احمد عسيري السلامة الجوية Flight Safety 0 13-07-2017 05:10 PM
طائرة A320 التابعة للخطوط الهندية تتجاوز المدرج أثناء الهبوط بمطار جامو محمد احمد عسيري السلامة الجوية Flight Safety 0 09-06-2017 11:35 PM

الساعة الآن 02:33 AM.
Powered by vBulletin® Version 3.8.9
Copyright ©2000 - 2018, vBulletin Solutions, Inc.
حق العلم والمعرفة يعادل حق الحياة للأنسان - لذا نحن كمسؤلين في الشبكة متنازلون عن جميع الحقوق
All trademarks and copyrights held by respective owners. Member comments are owned by the poster.
خط الطيران 2004-2018